^^
Your Local Weather - Clay, NY Station Historical Data
Daily Summary for September 5, 2017 Units:  English    Metric   Both
« Previous Day
Next Day »
Daily Weekly Monthly Yearly Custom
  High: Low: Average:
Temperature: 73.2 °F 53.3 °F 61.7 °F
Dew Point: 63.6 °F 51.6 °F 58.9 °F
Humidity: 94% 67% 91%
Wind Speed: 7.0mph 0.0mph 0.8mph
Wind Gust: 12.0mph - -
Wind- - WSW
Pressure: 29.79 in 29.57 in -
Precipitation: 0.58 in    
Historical Graphs
 
 
Tabular Data for September 5, 2017
Time Temperature Dew Point Pressure Wind Wind Speed Wind Gust Humidity Rainfall Rate (Hourly) solar
00:06 72.9 °F 61.3 °F 29.58 in South 5.0 mph 5.0 mph 67% 0.00 in 0 W/m2
00:12 72.9 °F 61.3 °F 29.57 in SSW 4.0 mph 5.0 mph 67% 0.00 in 0 W/m2
00:18 73.0 °F 61.4 °F 29.57 in SSE 4.0 mph 8.0 mph 67% 0.00 in 0 W/m2
00:24 73.2 °F 62.0 °F 29.58 in SSW 4.0 mph 5.0 mph 68% 0.00 in 0 W/m2
00:30 72.6 °F 62.3 °F 29.58 in SSW 5.0 mph 5.0 mph 70% 0.00 in 0 W/m2
00:36 72.2 °F 62.3 °F 29.58 in SSE 4.0 mph 6.0 mph 71% 0.00 in 0 W/m2
00:42 72.0 °F 62.5 °F 29.58 in SW 4.0 mph 4.0 mph 72% 0.00 in 0 W/m2
00:46 72.0 °F 62.5 °F 29.59 in SW 4.0 mph 4.0 mph 72% 0.00 in 0 W/m2
00:52 72.4 °F 62.5 °F 29.59 in SSW 5.0 mph 12.0 mph 71% 0.00 in 0 W/m2
00:58 72.7 °F 62.8 °F 29.59 in SW 4.0 mph 5.0 mph 71% 0.00 in 0 W/m2
01:04 72.5 °F 63.0 °F 29.59 in SW 3.0 mph 4.0 mph 72% 0.00 in 0 W/m2
01:09 72.0 °F 63.6 °F 29.60 in WSW 3.0 mph 3.0 mph 75% 0.00 in 0 W/m2
01:16 71.1 °F 63.5 °F 29.61 in SW 3.0 mph 4.0 mph 77% 0.06 in 0 W/m2
01:22 69.9 °F 63.4 °F 29.61 in SSW 5.0 mph 7.0 mph 80% 0.38 in 0 W/m2
01:28 68.7 °F 62.6 °F 29.61 in SW 7.0 mph 8.0 mph 81% 0.12 in 0 W/m2
01:34 67.7 °F 62.7 °F 29.62 in SW 5.0 mph 11.0 mph 84% 0.20 in 0 W/m2
01:40 66.9 °F 62.2 °F 29.61 in SW 5.0 mph 5.0 mph 85% 0.44 in 0 W/m2
01:46 66.5 °F 62.2 °F 29.62 in WSW 4.0 mph 7.0 mph 86% 0.19 in 0 W/m2
01:52 66.3 °F 62.6 °F 29.62 in SSW 3.0 mph 4.0 mph 88% 0.10 in 0 W/m2
01:58 66.0 °F 62.3 °F 29.62 in South 4.0 mph 6.0 mph 88% 0.06 in 0 W/m2
02:10 66.0 °F 62.3 °F 29.61 in SSW 4.0 mph 4.0 mph 88% 0.00 in 0 W/m2
02:16 65.9 °F 62.2 °F 29.61 in SSW 3.0 mph 6.0 mph 88% 0.14 in 0 W/m2
02:22 65.7 °F 62.0 °F 29.61 in SSE 4.0 mph 7.0 mph 88% 0.43 in 0 W/m2
02:28 65.8 °F 62.5 °F 29.61 in SSW 4.0 mph 7.0 mph 89% 0.20 in 0 W/m2
02:34 65.7 °F 62.4 °F 29.61 in SSW 3.0 mph 7.0 mph 89% 0.14 in 0 W/m2
02:40 65.7 °F 62.4 °F 29.60 in South 2.0 mph 3.0 mph 89% 0.17 in 0 W/m2
02:46 65.7 °F 62.7 °F 29.60 in South 2.0 mph 5.0 mph 90% 0.07 in 0 W/m2
02:52 65.8 °F 62.8 °F 29.61 in South 3.0 mph 3.0 mph 90% 0.09 in 0 W/m2
02:58 65.9 °F 62.9 °F 29.59 in SSW 3.0 mph 5.0 mph 90% 0.10 in 0 W/m2
03:04 66.0 °F 63.3 °F 29.60 in SW 3.0 mph 4.0 mph 91% 0.17 in 0 W/m2
03:10 66.2 °F 63.2 °F 29.60 in South 3.0 mph 5.0 mph 90% 0.07 in 0 W/m2
03:16 66.5 °F 63.5 °F 29.61 in SSW 4.0 mph 7.0 mph 90% 0.07 in 0 W/m2
03:22 66.8 °F 63.5 °F 29.61 in WSW 4.0 mph 5.0 mph 89% 0.05 in 0 W/m2
03:28 66.9 °F 63.6 °F 29.61 in SW 4.0 mph 5.0 mph 89% 0.00 in 0 W/m2
03:34 66.8 °F 63.5 °F 29.61 in South 4.0 mph 5.0 mph 89% 0.00 in 0 W/m2
03:40 66.8 °F 63.1 °F 29.61 in South 4.0 mph 4.0 mph 88% 0.00 in 0 W/m2
03:46 66.8 °F 63.1 °F 29.61 in SSW 5.0 mph 5.0 mph 88% 0.00 in 0 W/m2
03:52 66.7 °F 63.0 °F 29.61 in SW 4.0 mph 4.0 mph 88% 0.00 in 0 W/m2
03:58 66.5 °F 62.8 °F 29.61 in SSW 3.0 mph 4.0 mph 88% 0.00 in 0 W/m2
04:04 66.3 °F 62.6 °F 29.61 in South 2.0 mph 3.0 mph 88% 0.00 in 0 W/m2
04:10 66.1 °F 62.4 °F 29.61 in South 3.0 mph 4.0 mph 88% 0.10 in 0 W/m2
04:15 66.0 °F 62.3 °F 29.61 in WSW 3.0 mph 4.0 mph 88% 0.05 in 0 W/m2
04:22 66.0 °F 62.7 °F 29.60 in WSW 3.0 mph 3.0 mph 89% 0.00 in 0 W/m2
04:28 65.9 °F 62.6 °F 29.61 in SW 2.0 mph 3.0 mph 89% 0.00 in 0 W/m2
04:34 65.8 °F 62.5 °F 29.61 in SSW 2.0 mph 3.0 mph 89% 0.00 in 0 W/m2
04:40 65.8 °F 62.5 °F 29.60 in SSE 3.0 mph 3.0 mph 89% 0.00 in 0 W/m2
04:52 65.8 °F 62.5 °F 29.61 in SW 2.0 mph 3.0 mph 89% 0.00 in 0 W/m2
04:58 65.6 °F 62.3 °F 29.62 in SW 2.0 mph 3.0 mph 89% 0.00 in 0 W/m2
05:04 65.5 °F 62.5 °F 29.61 in WSW 1.0 mph 1.0 mph 90% 0.00 in 0 W/m2
05:10 65.4 °F 62.4 °F 29.63 in WSW 1.0 mph 1.0 mph 90% 0.00 in 0 W/m2
05:16 65.4 °F 62.4 °F 29.62 in Calm   1.0 mph 90% 0.00 in 0 W/m2
05:22 65.3 °F 62.6 °F 29.63 in Calm     91% 0.00 in 0 W/m2
05:28 65.2 °F 62.5 °F 29.61 in Calm   1.0 mph 91% 0.00 in 0 W/m2
05:34 65.2 °F 62.5 °F 29.62 in Calm   1.0 mph 91% 0.00 in 0 W/m2
05:40 65.1 °F 62.4 °F 29.63 in Calm     91% 0.00 in 0 W/m2
05:46 65.0 °F 62.3 °F 29.63 in Calm   1.0 mph 91% 0.00 in 0 W/m2
05:52 64.5 °F 61.8 °F 29.64 in NW 1.0 mph 1.0 mph 91% 0.00 in 0 W/m2
05:58 63.8 °F 61.1 °F 29.64 in NW 1.0 mph 2.0 mph 91% 0.00 in 0 W/m2
06:04 63.4 °F 60.7 °F 29.64 in NW 1.0 mph 2.0 mph 91% 0.00 in 0 W/m2
06:10 63.1 °F 60.4 °F 29.63 in NW 1.0 mph 1.0 mph 91% 0.00 in 0 W/m2
06:16 63.0 °F 60.3 °F 29.63 in Calm   2.0 mph 91% 0.00 in 0 W/m2
06:22 62.8 °F 60.1 °F 29.63 in Calm     91% 0.00 in 0 W/m2
06:28 62.7 °F 60.0 °F 29.64 in Calm   1.0 mph 91% 0.00 in 0 W/m2
06:34 62.6 °F 60.2 °F 29.65 in Calm   2.0 mph 92% 0.00 in 0 W/m2
06:40 62.5 °F 60.1 °F 29.65 in Calm     92% 0.00 in 0 W/m2
06:46 62.5 °F 60.1 °F 29.64 in Calm     92% 0.00 in 0 W/m2
06:52 62.4 °F 60.0 °F 29.64 in Calm     92% 0.00 in 0 W/m2
06:58 62.3 °F 59.9 °F 29.63 in Calm   2.0 mph 92% 0.00 in 0 W/m2
07:04 62.2 °F 59.8 °F 29.64 in Calm     92% 0.00 in 0 W/m2
07:10 62.3 °F 59.9 °F 29.65 in Calm     92% 0.00 in 0 W/m2
07:16 62.3 °F 59.9 °F 29.66 in NW 1.0 mph 1.0 mph 92% 0.00 in 0 W/m2
07:22 62.3 °F 59.9 °F 29.66 in Calm   1.0 mph 92% 0.00 in 5 W/m2
07:28 62.2 °F 59.8 °F 29.66 in Calm   1.0 mph 92% 0.00 in 7 W/m2
07:34 62.2 °F 59.8 °F 29.66 in Calm   2.0 mph 92% 0.00 in 11 W/m2
07:40 62.2 °F 60.2 °F 29.67 in Calm     93% 0.00 in 9 W/m2
07:46 62.2 °F 60.2 °F 29.67 in Calm   2.0 mph 93% 0.00 in 7 W/m2
07:52 62.2 °F 60.2 °F 29.67 in Calm     93% 0.00 in 9 W/m2
07:58 62.2 °F 60.2 °F 29.67 in Calm     93% 0.00 in 7 W/m2
08:04 62.2 °F 60.2 °F 29.67 in Calm     93% 0.00 in 7 W/m2
08:10 62.1 °F 60.1 °F 29.67 in Calm     93% 0.00 in 5 W/m2
08:16 62.1 °F 60.1 °F 29.68 in Calm   1.0 mph 93% 0.00 in 5 W/m2
08:22 62.0 °F 60.0 °F 29.67 in Calm     93% 0.00 in 7 W/m2
08:28 62.0 °F 60.0 °F 29.68 in NW 1.0 mph 1.0 mph 93% 0.00 in 0 W/m2
08:34 61.9 °F 59.9 °F 29.68 in NW 1.0 mph 1.0 mph 93% 0.00 in 5 W/m2
08:40 62.0 °F 60.0 °F 29.68 in NW 1.0 mph 2.0 mph 93% 0.00 in 9 W/m2
08:46 62.0 °F 60.0 °F 29.68 in Calm   2.0 mph 93% 0.00 in 7 W/m2
08:52 61.9 °F 59.9 °F 29.69 in Calm     93% 0.00 in 9 W/m2
08:58 61.9 °F 59.9 °F 29.68 in Calm   1.0 mph 93% 0.00 in 9 W/m2
09:04 61.8 °F 59.8 °F 29.68 in Calm     93% 0.00 in 12 W/m2
09:10 61.8 °F 59.8 °F 29.68 in Calm     93% 0.00 in 7 W/m2
09:16 61.8 °F 59.8 °F 29.68 in NW 1.0 mph 1.0 mph 93% 0.00 in 11 W/m2
09:22 61.7 °F 59.7 °F 29.69 in NW 1.0 mph 1.0 mph 93% 0.00 in 12 W/m2
09:28 61.7 °F 59.7 °F 29.69 in NW 1.0 mph 3.0 mph 93% 0.00 in 5 W/m2
09:34 61.6 °F 59.6 °F 29.69 in Calm   1.0 mph 93% 0.26 in 9 W/m2
09:40 61.7 °F 59.7 °F 29.68 in Calm     93% 0.38 in 42 W/m2
09:45 61.6 °F 59.6 °F 29.69 in Calm     93% 0.11 in 30 W/m2
09:52 61.7 °F 59.7 °F 29.68 in Calm     93% 0.05 in 40 W/m2
09:58 61.7 °F 59.7 °F 29.68 in Calm     93% 0.05 in 35 W/m2
10:04 61.7 °F 60.0 °F 29.68 in Calm     94% 0.05 in 35 W/m2
10:09 61.6 °F 59.6 °F 29.68 in Calm   2.0 mph 93% 0.00 in 44 W/m2
10:16 61.5 °F 59.5 °F 29.68 in Calm   2.0 mph 93% 0.00 in 32 W/m2
10:22 61.5 °F 59.5 °F 29.68 in Calm     93% 0.00 in 23 W/m2
10:28 61.5 °F 59.5 °F 29.68 in Calm     93% 0.00 in 21 W/m2
10:34 61.6 °F 59.9 °F 29.69 in Calm     94% 0.00 in 18 W/m2
10:40 61.6 °F 59.9 °F 29.69 in Calm     94% 0.00 in 28 W/m2
10:46 61.6 °F 59.9 °F 29.69 in Calm     94% 0.00 in 23 W/m2
10:52 61.6 °F 59.9 °F 29.69 in Calm     94% 0.00 in 26 W/m2
10:58 61.5 °F 59.5 °F 29.69 in Calm     93% 0.00 in 33 W/m2
11:04 61.5 °F 59.5 °F 29.69 in Calm     93% 0.00 in 35 W/m2
11:10 61.4 °F 59.4 °F 29.68 in Calm     93% 0.00 in 39 W/m2
11:16 61.5 °F 59.5 °F 29.67 in Calm     93% 0.00 in 53 W/m2
11:22 61.6 °F 59.9 °F 29.68 in Calm     94% 0.00 in 47 W/m2
11:28 61.6 °F 59.9 °F 29.68 in Calm     94% 0.00 in 53 W/m2
11:34 61.6 °F 59.9 °F 29.67 in Calm     94% 0.00 in 77 W/m2
11:40 61.6 °F 59.9 °F 29.68 in Calm     94% 0.00 in 46 W/m2
11:46 61.7 °F 60.0 °F 29.67 in Calm     94% 0.00 in 28 W/m2
11:52 61.5 °F 59.8 °F 29.68 in Calm     94% 0.05 in 16 W/m2
11:58 61.5 °F 59.5 °F 29.68 in Calm     93% 0.05 in 16 W/m2
12:03 61.4 °F 59.4 °F 29.68 in Calm     93% 0.04 in 18 W/m2
12:10 61.2 °F 59.2 °F 29.68 in Calm   1.0 mph 93% 0.00 in 19 W/m2
12:16 60.9 °F 58.9 °F 29.68 in Calm   1.0 mph 93% 0.00 in 25 W/m2
12:22 60.9 °F 58.9 °F 29.68 in Calm     93% 0.00 in 30 W/m2
12:28 60.9 °F 58.9 °F 29.68 in Calm   1.0 mph 93% 0.00 in 40 W/m2
12:34 60.9 °F 59.2 °F 29.68 in Calm     94% 0.00 in 26 W/m2
12:40 61.0 °F 59.3 °F 29.69 in Calm   2.0 mph 94% 0.00 in 18 W/m2
12:46 60.9 °F 58.9 °F 29.69 in Calm   2.0 mph 93% 0.00 in 32 W/m2
12:52 60.7 °F 58.7 °F 29.69 in Calm     93% 0.00 in 35 W/m2
12:58 60.7 °F 58.7 °F 29.69 in Calm     93% 0.00 in 33 W/m2
13:04 60.7 °F 58.7 °F 29.68 in Calm     93% 0.00 in 42 W/m2
13:10 60.8 °F 58.8 °F 29.68 in Calm   1.0 mph 93% 0.00 in 67 W/m2
13:16 60.9 °F 58.9 °F 29.68 in Calm   1.0 mph 93% 0.00 in 49 W/m2
13:22 61.0 °F 59.3 °F 29.68 in Calm   1.0 mph 94% 0.00 in 26 W/m2
13:28 60.9 °F 59.2 °F 29.69 in Calm   1.0 mph 94% 0.10 in 25 W/m2
13:34 60.8 °F 58.8 °F 29.68 in Calm     93% 0.11 in 28 W/m2
13:40 60.7 °F 58.7 °F 29.69 in Calm     93% 0.07 in 30 W/m2
13:46 60.6 °F 58.6 °F 29.68 in Calm     93% 0.05 in 58 W/m2
13:52 60.6 °F 58.6 °F 29.68 in Calm     93% 0.08 in 63 W/m2
13:58 60.6 °F 58.6 °F 29.68 in Calm     93% 0.07 in 51 W/m2
14:04 60.6 °F 58.6 °F 29.69 in Calm     93% 0.07 in 49 W/m2
14:10 60.4 °F 58.4 °F 29.69 in Calm     93% 0.05 in 37 W/m2
14:16 60.1 °F 58.1 °F 29.69 in Calm     93% 0.00 in 39 W/m2
14:22 60.0 °F 58.0 °F 29.69 in Calm     93% 0.00 in 62 W/m2
14:28 60.0 °F 58.0 °F 29.69 in Calm     93% 0.00 in 54 W/m2
14:34 60.1 °F 58.1 °F 29.69 in Calm     93% 0.00 in 51 W/m2
14:40 60.2 °F 58.2 °F 29.69 in Calm     93% 0.00 in 58 W/m2
14:46 60.2 °F 58.2 °F 29.69 in Calm     93% 0.00 in 37 W/m2
14:52 60.0 °F 58.0 °F 29.69 in Calm     93% 0.00 in 63 W/m2
14:58 60.1 °F 58.1 °F 29.68 in Calm     93% 0.00 in 84 W/m2
15:04 60.3 °F 58.3 °F 29.68 in Calm   1.0 mph 93% 0.00 in 67 W/m2
15:10 60.4 °F 58.4 °F 29.68 in Calm     93% 0.00 in 79 W/m2
15:16 60.5 °F 58.5 °F 29.68 in Calm     93% 0.00 in 88 W/m2
15:22 60.6 °F 58.6 °F 29.69 in Calm     93% 0.00 in 69 W/m2
15:28 60.8 °F 58.8 °F 29.68 in Calm     93% 0.00 in 98 W/m2
15:34 60.7 °F 58.7 °F 29.68 in Calm     93% 0.00 in 118 W/m2
15:40 60.7 °F 58.7 °F 29.69 in Calm   1.0 mph 93% 0.00 in 60 W/m2
15:46 60.8 °F 58.8 °F 29.69 in Calm   1.0 mph 93% 0.00 in 46 W/m2
15:52 60.9 °F 58.9 °F 29.69 in Calm     93% 0.00 in 58 W/m2
15:58 61.0 °F 59.0 °F 29.70 in Calm     93% 0.00 in 42 W/m2
16:04 60.9 °F 58.9 °F 29.70 in Calm     93% 0.00 in 51 W/m2
16:10 60.8 °F 58.8 °F 29.70 in Calm     93% 0.00 in 58 W/m2
16:16 60.7 °F 58.7 °F 29.70 in Calm     93% 0.00 in 51 W/m2
16:22 60.6 °F 58.3 °F 29.71 in NW 1.0 mph 1.0 mph 92% 0.00 in 51 W/m2
16:28 60.5 °F 58.2 °F 29.71 in Calm   1.0 mph 92% 0.00 in 58 W/m2
16:34 60.6 °F 58.3 °F 29.71 in Calm   1.0 mph 92% 0.00 in 40 W/m2
16:40 60.6 °F 58.3 °F 29.71 in Calm     92% 0.00 in 42 W/m2
16:46 60.5 °F 58.2 °F 29.71 in Calm     92% 0.00 in 56 W/m2
16:52 60.6 °F 58.3 °F 29.71 in Calm     92% 0.00 in 72 W/m2
16:58 60.6 °F 58.3 °F 29.71 in Calm     92% 0.00 in 109 W/m2
17:06 60.6 °F 58.3 °F 29.71 in Calm   1.0 mph 92% 0.00 in 84 W/m2
17:12 60.8 °F 58.5 °F 29.71 in NW 1.0 mph 2.0 mph 92% 0.00 in 97 W/m2
17:18 60.9 °F 58.6 °F 29.71 in NW 1.0 mph 2.0 mph 92% 0.00 in 81 W/m2
17:24 61.0 °F 58.7 °F 29.71 in Calm   1.0 mph 92% 0.00 in 69 W/m2
17:29 61.0 °F 58.7 °F 29.71 in Calm   2.0 mph 92% 0.00 in 51 W/m2
17:36 61.0 °F 58.7 °F 29.71 in NW 1.0 mph 2.0 mph 92% 0.00 in 32 W/m2
17:42 60.8 °F 58.5 °F 29.71 in NW 1.0 mph 1.0 mph 92% 0.00 in 40 W/m2
17:48 60.6 °F 58.3 °F 29.71 in NW 1.0 mph 3.0 mph 92% 0.00 in 49 W/m2
17:53 60.6 °F 58.3 °F 29.71 in NW 1.0 mph 1.0 mph 92% 0.00 in 69 W/m2
18:00 60.8 °F 58.5 °F 29.72 in NW 1.0 mph 1.0 mph 92% 0.00 in 98 W/m2
18:06 61.0 °F 58.7 °F 29.73 in NW 1.0 mph 1.0 mph 92% 0.00 in 74 W/m2
18:08 60.9 °F 58.6 °F 29.73 in NW 1.0 mph 1.0 mph 92% 0.00 in 77 W/m2
18:14 61.0 °F 58.4 °F 29.73 in NW 1.0 mph 2.0 mph 91% 0.00 in 97 W/m2
18:19 61.1 °F 58.5 °F 29.73 in Calm     91% 0.00 in 74 W/m2
18:26 61.2 °F 58.9 °F 29.73 in NW 1.0 mph 1.0 mph 92% 0.00 in 81 W/m2
18:32 61.2 °F 58.6 °F 29.73 in Calm     91% 0.00 in 83 W/m2
18:38 61.2 °F 58.6 °F 29.73 in Calm   1.0 mph 91% 0.00 in 77 W/m2
18:44 61.2 °F 58.6 °F 29.73 in NW 1.0 mph 2.0 mph 91% 0.00 in 70 W/m2
18:50 61.2 °F 58.2 °F 29.73 in NW 1.0 mph 1.0 mph 90% 0.00 in 46 W/m2
18:56 61.1 °F 58.1 °F 29.73 in Calm   1.0 mph 90% 0.00 in 33 W/m2
19:02 61.0 °F 58.0 °F 29.73 in Calm     90% 0.00 in 28 W/m2
19:08 60.8 °F 57.8 °F 29.74 in Calm     90% 0.00 in 19 W/m2
19:13 60.6 °F 57.7 °F 29.74 in Calm     90% 0.00 in 12 W/m2
19:20 60.3 °F 57.7 °F 29.74 in Calm     91% 0.00 in 9 W/m2
19:26 60.1 °F 57.5 °F 29.74 in Calm     91% 0.00 in 7 W/m2
19:32 59.7 °F 57.1 °F 29.74 in Calm     91% 0.00 in 5 W/m2
19:38 59.3 °F 56.7 °F 29.74 in Calm     91% 0.00 in 0 W/m2
19:44 59.0 °F 56.4 °F 29.75 in Calm     91% 0.00 in 0 W/m2
19:50 58.3 °F 55.7 °F 29.75 in Calm     91% 0.00 in 0 W/m2
19:56 57.8 °F 55.2 °F 29.75 in Calm     91% 0.00 in 0 W/m2
20:02 57.8 °F 55.5 °F 29.75 in Calm     92% 0.00 in 0 W/m2
20:08 57.6 °F 55.3 °F 29.76 in Calm     92% 0.00 in 0 W/m2
20:14 57.4 °F 55.1 °F 29.76 in Calm     92% 0.00 in 0 W/m2
20:20 57.1 °F 54.8 °F 29.76 in Calm     92% 0.00 in 0 W/m2
20:26 57.0 °F 54.7 °F 29.76 in Calm     92% 0.00 in 0 W/m2
20:32 56.8 °F 54.8 °F 29.76 in Calm     93% 0.00 in 0 W/m2
20:38 56.8 °F 54.8 °F 29.77 in Calm     93% 0.00 in 0 W/m2
20:44 56.6 °F 54.6 °F 29.77 in Calm     93% 0.00 in 0 W/m2
20:50 56.4 °F 54.4 °F 29.77 in Calm     93% 0.00 in 0 W/m2
20:56 56.0 °F 54.0 °F 29.78 in Calm     93% 0.00 in 0 W/m2
21:02 55.7 °F 53.7 °F 29.77 in Calm     93% 0.00 in 0 W/m2
21:08 55.7 °F 53.7 °F 29.78 in Calm     93% 0.00 in 0 W/m2
21:14 55.6 °F 53.6 °F 29.78 in Calm     93% 0.00 in 0 W/m2
21:20 55.3 °F 53.3 °F 29.78 in Calm     93% 0.00 in 0 W/m2
21:26 55.3 °F 53.3 °F 29.77 in Calm     93% 0.00 in 0 W/m2
21:32 55.3 °F 53.6 °F 29.78 in Calm     94% 0.00 in 0 W/m2
21:38 55.2 °F 53.5 °F 29.78 in Calm     94% 0.00 in 0 W/m2
21:44 55.0 °F 53.0 °F 29.78 in Calm     93% 0.00 in 0 W/m2
21:50 55.2 °F 53.5 °F 29.78 in Calm     94% 0.00 in 0 W/m2
21:56 55.3 °F 53.6 °F 29.78 in Calm     94% 0.00 in 0 W/m2
22:02 55.3 °F 53.6 °F 29.78 in Calm     94% 0.00 in 0 W/m2
22:08 55.1 °F 53.4 °F 29.78 in Calm     94% 0.00 in 0 W/m2
22:14 54.8 °F 53.1 °F 29.78 in Calm     94% 0.00 in 0 W/m2
22:19 54.6 °F 52.9 °F 29.78 in Calm     94% 0.00 in 0 W/m2
22:26 54.3 °F 52.6 °F 29.78 in Calm     94% 0.00 in 0 W/m2
22:32 54.2 °F 52.5 °F 29.78 in Calm     94% 0.00 in 0 W/m2
22:38 54.2 °F 52.5 °F 29.78 in Calm     94% 0.00 in 0 W/m2
22:43 54.1 °F 52.4 °F 29.78 in Calm     94% 0.00 in 0 W/m2
22:50 54.0 °F 52.3 °F 29.78 in Calm     94% 0.00 in 0 W/m2
22:55 54.0 °F 52.3 °F 29.78 in Calm     94% 0.00 in 0 W/m2
23:02 54.0 °F 52.3 °F 29.78 in Calm     94% 0.00 in 0 W/m2
23:08 54.0 °F 52.3 °F 29.78 in Calm     94% 0.00 in 0 W/m2
23:14 53.8 °F 52.1 °F 29.78 in Calm     94% 0.00 in 0 W/m2
23:20 53.8 °F 52.1 °F 29.78 in Calm     94% 0.00 in 0 W/m2
23:26 53.8 °F 52.1 °F 29.78 in Calm     94% 0.00 in 0 W/m2
23:32 53.6 °F 51.9 °F 29.78 in Calm     94% 0.00 in 0 W/m2
23:38 53.6 °F 51.9 °F 29.79 in Calm     94% 0.00 in 0 W/m2
23:43 53.7 °F 52.0 °F 29.78 in Calm     94% 0.00 in 0 W/m2
23:50 53.5 °F 51.8 °F 29.78 in Calm     94% 0.00 in 0 W/m2
23:56 53.3 °F 51.6 °F 29.79 in Calm     94% 0.00 in 0 W/m2
Country Meadow, Clay, NY, USA
Compliments of Weather Underground - 2 mb